Time;durP1;ratioP1;P1;durP2;ratioP2;P2;SDS_P1;SDS_P2;PMS_P1;PMS_P2;Temp;Humidity;BMP_temperature;BMP_pressure;BME280_temperature;BME280_humidity;BME280_pressure;Samples;Min_cycle;Max_cycle;Signal;HPM_P1;HPM_P2
2023/02/19 00:03:05;;;;;;;;;;;;;;;19.64;36.32;96080.38;10426677;28;2200;-48
2023/02/19 00:08:06;;;;;;;;;;;;;;;19.62;36.35;96073.81;10424097;28;2860;-47
2023/02/19 00:13:06;;;;;;;;;;;;;;;19.63;36.52;96075.38;10405411;28;2726;-49
2023/02/19 00:18:06;;;;;;;;;;;;;;;19.61;36.42;96070.41;10423469;28;2140;-48
2023/02/19 00:23:07;;;;;;;;;;;;;;;19.59;36.49;96059.34;10425381;28;2531;-48
2023/02/19 00:28:07;;;;;;;;;;;;;;;19.58;36.54;96057.75;10419103;28;3722;-49
2023/02/19 00:33:07;;;;;;;;;;;;;;;19.58;36.32;96059.63;10438430;28;2835;-51
2023/02/19 00:38:07;;;;;;;;;;;;;;;19.56;36.31;96059.09;10416684;28;2214;-47
2023/02/19 00:43:07;;;;;;;;;;;;;;;19.57;36.38;96050.94;10424574;28;2850;-46
2023/02/19 00:48:08;;;;;;;;;;;;;;;19.55;36.42;96047.78;10424372;28;2637;-49
2023/02/19 00:53:08;;;;;;;;;;;;;;;19.55;36.38;96046.97;10425780;28;2547;-48
2023/02/19 00:58:08;;;;;;;;;;;;;;;19.56;36.30;96043.31;10433143;28;3190;-47
2023/02/19 01:03:09;;;;;;;;;;;;;;;19.53;36.40;96033.28;10420795;28;2084;-48
2023/02/19 01:08:09;;;;;;;;;;;;;;;19.52;36.11;96027.25;10425093;28;2116;-47
2023/02/19 01:13:09;;;;;;;;;;;;;;;19.51;36.22;96027.50;10414791;28;2307;-50
2023/02/19 01:18:10;;;;;;;;;;;;;;;19.49;36.15;96020.66;10420988;28;2922;-49
2023/02/19 01:23:10;;;;;;;;;;;;;;;19.48;36.15;96018.28;10439580;28;2878;-50
2023/02/19 01:28:11;;;;;;;;;;;;;;;19.47;36.16;96014.88;10458267;28;2587;-49
2023/02/19 01:33:12;;;;;;;;;;;;;;;19.47;36.19;96011.47;10461430;28;2255;-47
2023/02/19 01:38:12;;;;;;;;;;;;;;;19.46;36.15;96013.31;10462532;28;2093;-48
2023/02/19 01:43:16;;;;;;;;;;;;;;;19.45;36.28;96011.72;10467518;28;2893;-47
2023/02/19 01:48:42;;;;;;;;;;;;;;;19.44;36.21;96002.25;10447594;28;2165;-49
2023/02/19 01:53:43;;;;;;;;;;;;;;;19.43;36.13;95990.16;10452603;28;2594;-47
2023/02/19 01:58:43;;;;;;;;;;;;;;;19.42;36.18;95991.22;10464592;28;2818;-47
2023/02/19 02:03:44;;;;;;;;;;;;;;;19.41;36.21;95981.72;10467680;28;2125;-47
2023/02/19 02:14:03;;;;;;;;;;;;;;;19.40;36.12;95972.28;10462316;28;2794;-50
2023/02/19 02:19:06;;;;;;;;;;;;;;;19.40;36.18;95984.63;10460613;28;2838;-48
2023/02/19 02:24:11;;;;;;;;;;;;;;;19.40;36.08;95974.09;10432738;28;2135;-51
2023/02/19 02:29:14;;;;;;;;;;;;;;;19.39;35.96;95972.53;10414827;28;2616;-47
2023/02/19 02:34:18;;;;;;;;;;;;;;;19.37;36.18;95962.28;10417540;28;2538;-48
2023/02/19 02:39:19;;;;;;;;;;;;;;;19.36;36.06;95963.34;10398229;28;2621;-47
2023/02/19 02:44:19;;;;;;;;;;;;;;;19.35;36.11;95959.13;10402347;28;2611;-48
2023/02/19 02:49:20;;;;;;;;;;;;;;;19.35;36.00;95964.38;10428313;28;2889;-48
2023/02/19 02:59:47;;;;;;;;;;;;;;;19.34;36.01;95941.78;10409682;28;2188;-51
2023/02/19 03:10:24;;;;;;;;;;;;;;;19.33;36.23;95934.13;10409638;28;3012;-48
2023/02/19 03:20:46;;;;;;;;;;;;;;;19.31;36.21;95929.13;10423902;28;2539;-47
2023/02/19 03:26:04;;;;;;;;;;;;;;;19.29;36.15;95925.97;10464047;28;2874;-47
2023/02/19 03:31:05;;;;;;;;;;;;;;;19.30;36.04;95917.03;10479138;28;2580;-48
2023/02/19 03:36:05;;;;;;;;;;;;;;;19.28;36.16;95932.28;10464366;28;2194;-47
2023/02/19 03:41:09;;;;;;;;;;;;;;;19.28;36.26;95924.41;10464744;28;2186;-51
2023/02/19 03:46:36;;;;;;;;;;;;;;;19.28;36.18;95900.75;10465515;28;2630;-47
2023/02/19 03:51:38;;;;;;;;;;;;;;;19.27;36.00;95916.75;10448484;28;2143;-47
2023/02/19 03:56:46;;;;;;;;;;;;;;;19.27;35.97;95920.16;10491232;28;2809;-46
2023/02/19 04:01:48;;;;;;;;;;;;;;;19.25;36.03;95924.91;10468732;28;2815;-49
2023/02/19 04:06:54;;;;;;;;;;;;;;;19.25;36.02;95914.38;10479422;28;2865;-48
2023/02/19 04:11:55;;;;;;;;;;;;;;;19.23;36.10;95908.59;10469453;28;2937;-46
2023/02/19 04:16:57;;;;;;;;;;;;;;;19.23;35.99;95908.59;10462009;28;2187;-49
2023/02/19 04:21:58;;;;;;;;;;;;;;;19.23;36.00;95898.09;10462448;28;2152;-47
2023/02/19 04:26:58;;;;;;;;;;;;;;;19.21;35.97;95900.19;10416489;28;2758;-48
2023/02/19 04:31:58;;;;;;;;;;;;;;;19.21;35.96;95904.66;10419538;28;2881;-47
2023/02/19 04:36:58;;;;;;;;;;;;;;;19.20;36.08;95895.22;10420119;28;2885;-48
2023/02/19 04:41:59;;;;;;;;;;;;;;;19.19;35.92;95915.44;10423565;28;2563;-47
2023/02/19 04:46:59;;;;;;;;;;;;;;;19.19;35.96;95925.94;10416050;28;2952;-47
2023/02/19 04:51:59;;;;;;;;;;;;;;;19.19;35.99;95918.06;10424981;28;2186;-49
2023/02/19 04:57:00;;;;;;;;;;;;;;;19.18;36.17;95929.63;10415841;28;3030;-48
2023/02/19 05:02:00;;;;;;;;;;;;;;;19.18;36.00;95929.63;10425217;28;2187;-46
2023/02/19 05:07:00;;;;;;;;;;;;;;;19.17;36.10;95922.78;10415688;28;2853;-48
2023/02/19 05:12:00;;;;;;;;;;;;;;;19.19;36.07;95933.81;10418114;28;2164;-50
2023/02/19 05:17:01;;;;;;;;;;;;;;;19.25;36.11;95919.66;10422594;28;2194;-47
2023/02/19 05:22:01;;;;;;;;;;;;;;;19.32;36.09;95927.28;10418903;28;2180;-47
2023/02/19 05:27:01;;;;;;;;;;;;;;;19.39;36.21;95931.25;10415149;28;2931;-50
2023/02/19 05:32:01;;;;;;;;;;;;;;;19.51;35.99;95930.22;10419247;28;2876;-51
2023/02/19 05:37:02;;;;;;;;;;;;;;;19.61;35.86;95932.84;10417812;28;2147;-47
2023/02/19 05:42:02;;;;;;;;;;;;;;;19.68;35.77;95942.06;10420362;28;2586;-46
2023/02/19 05:47:02;;;;;;;;;;;;;;;19.78;35.62;95949.19;10411596;28;2829;-48
2023/02/19 05:52:03;;;;;;;;;;;;;;;19.87;35.45;95960.72;10405189;28;2128;-47
2023/02/19 05:57:03;;;;;;;;;;;;;;;19.90;35.33;95973.38;10411519;28;2140;-49
2023/02/19 06:02:03;;;;;;;;;;;;;;;19.95;35.34;95968.88;10415122;28;2187;-46
2023/02/19 06:07:04;;;;;;;;;;;;;;;20.01;35.09;95972.31;10417746;28;2335;-47
2023/02/19 06:12:04;;;;;;;;;;;;;;;20.07;35.16;95960.75;10419210;28;2163;-52
2023/02/19 06:17:04;;;;;;;;;;;;;;;20.13;35.04;95975.47;10413634;28;2551;-48
2023/02/19 06:22:04;;;;;;;;;;;;;;;20.15;34.85;95968.09;10405413;28;2798;-47
2023/02/19 06:27:05;;;;;;;;;;;;;;;20.16;35.00;95975.72;10413557;28;2694;-47
2023/02/19 06:32:05;;;;;;;;;;;;;;;20.22;34.75;95994.94;10418342;28;2908;-47
2023/02/19 06:37:05;;;;;;;;;;;;;;;20.25;34.73;95994.44;10419839;28;2419;-47
2023/02/19 06:42:06;;;;;;;;;;;;;;;20.30;34.70;95991.78;10411867;28;2885;-48
2023/02/19 06:47:06;;;;;;;;;;;;;;;20.33;34.54;95999.16;10415525;28;2434;-48
2023/02/19 06:52:07;;;;;;;;;;;;;;;20.36;34.55;96011.00;10420670;28;3049;-47
2023/02/19 06:57:07;;;;;;;;;;;;;;;20.38;34.48;96014.94;10426944;28;3143;-48
2023/02/19 07:02:09;;;;;;;;;;;;;;;20.41;34.26;96019.69;10431877;28;2384;-47
2023/02/19 07:07:09;;;;;;;;;;;;;;;20.41;34.52;96019.69;10402331;28;2892;-47
2023/02/19 07:12:10;;;;;;;;;;;;;;;20.45;34.31;96031.25;10418991;28;3264;-47
2023/02/19 07:17:10;;;;;;;;;;;;;;;20.48;34.49;96054.44;10418450;28;2433;-48
2023/02/19 07:22:11;;;;;;;;;;;;;;;20.51;34.15;96050.47;10423876;28;2446;-46
2023/02/19 07:27:11;;;;;;;;;;;;;;;20.51;34.32;96045.19;10428939;28;2451;-48
2023/02/19 07:32:11;;;;;;;;;;;;;;;20.53;34.11;96059.69;10424619;28;2454;-47
2023/02/19 07:37:11;;;;;;;;;;;;;;;20.56;34.22;96067.06;10423687;28;2415;-49
2023/02/19 07:42:12;;;;;;;;;;;;;;;20.58;34.06;96077.34;10424257;28;2566;-51
2023/02/19 07:47:12;;;;;;;;;;;;;;;20.61;33.95;96077.59;10423098;28;2425;-47
2023/02/19 07:52:12;;;;;;;;;;;;;;;20.62;33.94;96094.19;10429596;28;3232;-48
2023/02/19 07:57:13;;;;;;;;;;;;;;;20.62;34.00;96108.16;10434492;28;2398;-49
2023/02/19 08:07:35;;;;;;;;;;;;;;;20.65;34.36;96125.28;10420766;28;2412;-50
2023/02/19 08:17:54;;;;;;;;;;;;;;;20.62;34.51;96131.84;10423137;28;2469;-49
2023/02/19 08:22:55;;;;;;;;;;;;;;;20.65;34.34;96135.81;10444876;28;3136;-48
2023/02/19 08:27:55;;;;;;;;;;;;;;;20.63;34.34;96138.69;10469814;28;3130;-49
2023/02/19 08:32:56;;;;;;;;;;;;;;;20.63;34.51;96137.91;10469152;28;2441;-49
2023/02/19 08:37:57;;;;;;;;;;;;;;;20.59;34.66;96142.91;10466722;28;2957;-47
2023/02/19 08:43:07;;;;;;;;;;;;;;;20.57;34.85;96144.22;10463906;28;2476;-49
2023/02/19 08:48:07;;;;;;;;;;;;;;;20.55;34.96;96154.22;10466740;28;2556;-47
2023/02/19 08:53:07;;;;;;;;;;;;;;;20.52;35.04;96171.38;10459558;28;2822;-50
2023/02/19 08:58:09;;;;;;;;;;;;;;;20.50;35.24;96170.03;10470181;28;2618;-49
2023/02/19 09:03:09;;;;;;;;;;;;;;;20.47;35.30;96168.72;10468105;28;2443;-48
2023/02/19 09:08:09;;;;;;;;;;;;;;;20.41;35.44;96164.50;10460731;28;2520;-48
2023/02/19 09:13:10;;;;;;;;;;;;;;;20.41;35.04;96180.28;10463798;28;3009;-50
2023/02/19 09:18:10;;;;;;;;;;;;;;;20.36;35.39;96172.38;10466435;28;3141;-48
2023/02/19 09:23:10;;;;;;;;;;;;;;;20.33;35.20;96193.97;10440620;28;2475;-51
2023/02/19 09:28:10;;;;;;;;;;;;;;;20.30;35.34;96194.50;10410177;28;3315;-46
2023/02/19 09:33:11;;;;;;;;;;;;;;;20.30;35.20;96197.13;10418809;28;3274;-47
2023/02/19 09:38:11;;;;;;;;;;;;;;;20.27;35.13;96193.19;10423518;28;2439;-47
2023/02/19 09:43:14;;;;;;;;;;;;;;;20.25;35.20;96215.56;10417055;28;2885;-50
2023/02/19 09:48:14;;;;;;;;;;;;;;;20.21;35.31;96219.75;10420970;28;3120;-47
2023/02/19 09:53:16;;;;;;;;;;;;;;;20.17;35.23;96226.56;10412331;28;2897;-49
2023/02/19 09:58:49;;;;;;;;;;;;;;;20.12;35.37;96221.28;10409081;28;2997;-49
2023/02/19 10:03:49;;;;;;;;;;;;;;;20.08;35.46;96220.19;10387767;28;2870;-50
2023/02/19 10:08:50;;;;;;;;;;;;;;;20.05;35.57;96216.25;10420553;28;2930;-48
2023/02/19 10:13:52;;;;;;;;;;;;;;;20.04;35.71;96211.25;10428526;28;2465;-47
2023/02/19 10:18:52;;;;;;;;;;;;;;;20.04;35.94;96208.63;10427759;28;2561;-46
2023/02/19 10:23:54;;;;;;;;;;;;;;;20.01;36.14;96209.91;10450177;28;2381;-49
2023/02/19 10:28:54;;;;;;;;;;;;;;;20.00;36.23;96218.06;10478051;28;2916;-49
2023/02/19 10:33:55;;;;;;;;;;;;;;;20.00;36.11;96228.59;10471980;28;2504;-51
2023/02/19 10:38:55;;;;;;;;;;;;;;;19.99;36.25;96211.25;10472858;28;3146;-50
2023/02/19 10:44:02;;;;;;;;;;;;;;;19.98;36.19;96212.28;10474180;28;2912;-48
2023/02/19 10:49:03;;;;;;;;;;;;;;;19.94;36.57;96211.22;10474589;28;2433;-47
2023/02/19 10:54:04;;;;;;;;;;;;;;;19.93;36.54;96199.91;10475487;28;2858;-48
2023/02/19 10:59:13;;;;;;;;;;;;;;;19.95;36.67;96212.78;10473859;28;3141;-49
2023/02/19 11:04:14;;;;;;;;;;;;;;;19.95;36.62;96204.88;10476611;28;2409;-51
2023/02/19 11:09:27;;;;;;;;;;;;;;;19.92;36.88;96205.41;10473564;28;2858;-48
2023/02/19 11:14:27;;;;;;;;;;;;;;;19.93;36.97;96193.84;10473852;28;3135;-46
2023/02/19 11:19:38;;;;;;;;;;;;;;;19.90;36.91;96204.88;10479098;28;2422;-48
2023/02/19 11:24:39;;;;;;;;;;;;;;;19.90;36.91;96212.78;10445109;28;2889;-49
2023/02/19 11:29:39;;;;;;;;;;;;;;;19.87;37.18;96206.19;10436630;28;3299;-46
2023/02/19 11:34:39;;;;;;;;;;;;;;;19.87;37.17;96208.03;10426157;28;2681;-52
2023/02/19 11:39:41;;;;;;;;;;;;;;;19.84;37.10;96211.19;10431119;28;2841;-48
2023/02/19 11:44:45;;;;;;;;;;;;;;;19.83;36.96;96217.47;10429133;28;2972;-49
2023/02/19 11:49:51;;;;;;;;;;;;;;;19.78;37.01;96223.53;10430439;28;2407;-51
2023/02/19 11:54:53;;;;;;;;;;;;;;;19.78;36.92;96222.75;10425056;28;3094;-50
2023/02/19 11:59:56;;;;;;;;;;;;;;;19.76;36.84;96216.94;10411865;28;3140;-47
2023/02/19 12:04:59;;;;;;;;;;;;;;;19.74;37.09;96227.69;10425918;28;2935;-49
2023/02/19 12:10:18;;;;;;;;;;;;;;;19.73;36.76;96217.44;10425130;28;2861;-53
2023/02/19 12:15:19;;;;;;;;;;;;;;;19.72;36.84;96227.16;10416541;28;2855;-51
2023/02/19 12:20:19;;;;;;;;;;;;;;;19.76;36.70;96224.84;10431092;28;2419;-48
2023/02/19 12:25:24;;;;;;;;;;;;;;;19.83;36.53;96234.06;10424393;28;3077;-52
2023/02/19 12:30:31;;;;;;;;;;;;;;;19.86;36.47;96230.13;10414762;28;3238;-51
2023/02/19 12:35:34;;;;;;;;;;;;;;;19.94;36.32;96233.06;10420397;28;3215;-51
2023/02/19 12:40:53;;;;;;;;;;;;;;;20.02;36.43;96252.81;10429004;28;3383;-48
2023/02/19 12:46:00;;;;;;;;;;;;;;;20.10;36.24;96270.75;10425412;28;2433;-48
2023/02/19 12:51:09;;;;;;;;;;;;;;;20.18;35.95;96262.34;10410833;28;3143;-50
2023/02/19 12:56:17;;;;;;;;;;;;;;;20.25;35.97;96270.84;10400855;28;2418;-51
2023/02/19 13:01:22;;;;;;;;;;;;;;;20.30;35.73;96262.16;10425372;28;2876;-49
2023/02/19 13:06:30;;;;;;;;;;;;;;;20.36;35.56;96274.28;10416340;28;3263;-48
2023/02/19 13:11:32;;;;;;;;;;;;;;;20.38;35.34;96267.69;10411384;28;2438;-48
2023/02/19 13:16:33;;;;;;;;;;;;;;;20.39;35.37;96271.94;10406944;28;3327;-52
2023/02/19 13:27:00;;;;;;;;;;;;;;;20.49;34.97;96273.78;10413526;28;2875;-49
2023/02/19 13:32:22;;;;;;;;;;;;;;;20.53;34.99;96264.31;10404727;28;2938;-50
2023/02/19 13:37:22;;;;;;;;;;;;;;;20.59;34.68;96244.81;10410579;28;2407;-52
2023/02/19 13:42:25;;;;;;;;;;;;;;;20.62;34.90;96237.22;10426726;28;2391;-48
2023/02/19 13:47:44;;;;;;;;;;;;;;;20.66;34.47;96237.47;10420869;28;2395;-49
2023/02/19 13:52:44;;;;;;;;;;;;;;;20.68;34.52;96243.28;10425036;28;3140;-50
2023/02/19 13:57:45;;;;;;;;;;;;;;;20.73;34.50;96267.75;10435005;28;2861;-50
2023/02/19 14:02:46;;;;;;;;;;;;;;;20.76;34.30;96255.91;10435633;28;2834;-49
2023/02/19 14:07:47;;;;;;;;;;;;;;;20.77;34.19;96253.00;10432402;28;2826;-48
2023/02/19 14:12:47;;;;;;;;;;;;;;;20.80;34.02;96263.03;10425003;28;3401;-49
2023/02/19 14:17:47;;;;;;;;;;;;;;;20.81;34.26;96261.22;10418443;28;2455;-48
2023/02/19 14:22:51;;;;;;;;;;;;;;;20.83;34.05;96238.81;10443297;28;2296;-50
2023/02/19 14:27:52;;;;;;;;;;;;;;;20.85;34.12;96247.25;10435400;28;2381;-49
2023/02/19 14:32:52;;;;;;;;;;;;;;;20.87;34.36;96255.69;10437856;28;3148;-52
2023/02/19 14:37:53;;;;;;;;;;;;;;;20.90;34.02;96270.16;10423565;28;2463;-48
2023/02/19 14:42:53;;;;;;;;;;;;;;;20.91;33.65;96263.84;10437380;28;2412;-52
2023/02/19 14:47:53;;;;;;;;;;;;;;;20.91;33.86;96262.00;10415695;28;2388;-52
2023/02/19 14:52:56;;;;;;;;;;;;;;;20.90;33.72;96286.75;10438011;28;2948;-53
2023/02/19 14:57:57;;;;;;;;;;;;;;;20.91;33.67;96284.94;10431100;28;3168;-48
2023/02/19 15:02:58;;;;;;;;;;;;;;;20.88;33.67;96298.63;10438308;28;2442;-48
2023/02/19 15:08:00;;;;;;;;;;;;;;;20.86;33.65;96296.25;10414488;28;3173;-54
2023/02/19 15:13:05;;;;;;;;;;;;;;;20.80;33.70;96302.56;10416117;28;2956;-51
2023/02/19 15:18:05;;;;;;;;;;;;;;;20.77;33.66;96297.81;10399652;28;3120;-48
2023/02/19 15:23:05;;;;;;;;;;;;;;;20.73;33.79;96315.19;10436238;28;3310;-54
2023/02/19 15:28:18;;;;;;;;;;;;;;;20.70;33.87;96318.34;10428256;28;3273;-51
2023/02/19 15:33:19;;;;;;;;;;;;;;;20.66;33.78;96332.31;10427145;28;2821;-52
2023/02/19 15:38:19;;;;;;;;;;;;;;;20.64;33.90;96337.84;10435147;28;3081;-53
2023/02/19 15:43:21;;;;;;;;;;;;;;;20.58;33.83;96330.19;10419379;28;2411;-49
2023/02/19 15:48:23;;;;;;;;;;;;;;;20.53;33.87;96330.16;10414220;28;3193;-50
2023/02/19 15:53:25;;;;;;;;;;;;;;;20.50;33.91;96336.75;10415036;28;2437;-52
2023/02/19 15:58:26;;;;;;;;;;;;;;;20.46;33.77;96333.06;10392849;28;3107;-50
2023/02/19 16:03:27;;;;;;;;;;;;;;;20.42;34.02;96321.44;10413241;28;3157;-48
2023/02/19 16:08:30;;;;;;;;;;;;;;;20.39;34.08;96321.94;10413908;28;3228;-48
2023/02/19 16:13:31;;;;;;;;;;;;;;;20.34;33.93;96313.25;10426570;28;2462;-48
2023/02/19 16:18:31;;;;;;;;;;;;;;;20.31;34.01;96324.28;10431840;28;2435;-47
2023/02/19 16:23:31;;;;;;;;;;;;;;;20.27;34.11;96342.44;10435031;28;2962;-51
2023/02/19 16:28:34;;;;;;;;;;;;;;;20.24;34.04;96354.28;10437930;28;3104;-51
2023/02/19 16:33:45;;;;;;;;;;;;;;;20.22;34.04;96358.22;10416647;28;3150;-50
2023/02/19 16:39:05;;;;;;;;;;;;;;;20.18;33.96;96362.38;10430849;28;2470;-51
2023/02/19 16:44:24;;;;;;;;;;;;;;;20.14;34.03;96361.28;10438183;28;2470;-47
2023/02/19 16:49:24;;;;;;;;;;;;;;;20.13;34.24;96380.78;10429675;28;2448;-48
2023/02/19 16:54:24;;;;;;;;;;;;;;;20.11;34.04;96394.19;10421101;28;3185;-49
2023/02/19 16:59:24;;;;;;;;;;;;;;;20.08;34.06;96393.91;10438239;28;3167;-48
2023/02/19 17:04:25;;;;;;;;;;;;;;;20.06;34.14;96398.63;10425441;28;2443;-47
2023/02/19 17:09:25;;;;;;;;;;;;;;;20.05;34.21;96411.00;10407598;28;2891;-50
2023/02/19 17:14:25;;;;;;;;;;;;;;;20.04;34.10;96413.88;10420486;28;3234;-51
2023/02/19 17:19:26;;;;;;;;;;;;;;;20.05;33.96;96418.88;10429715;28;3168;-46
2023/02/19 17:24:27;;;;;;;;;;;;;;;20.07;34.05;96413.38;10432029;28;2439;-49
2023/02/19 17:29:29;;;;;;;;;;;;;;;20.08;33.91;96422.84;10428857;28;3076;-48
2023/02/19 17:34:29;;;;;;;;;;;;;;;20.06;34.06;96446.81;10427505;28;2431;-50
2023/02/19 17:39:29;;;;;;;;;;;;;;;20.06;33.82;96435.47;10421755;28;2525;-48
2023/02/19 17:44:30;;;;;;;;;;;;;;;20.03;33.83;96434.13;10430210;28;3129;-50
2023/02/19 17:49:31;;;;;;;;;;;;;;;20.01;33.92;96441.50;10431117;28;2881;-52
2023/02/19 17:54:33;;;;;;;;;;;;;;;20.00;33.86;96460.16;10426853;28;3165;-49
2023/02/19 17:59:33;;;;;;;;;;;;;;;19.99;34.05;96477.03;10434623;28;2455;-50
2023/02/19 18:04:33;;;;;;;;;;;;;;;19.96;33.83;96480.16;10422239;28;2486;-51
2023/02/19 18:09:34;;;;;;;;;;;;;;;19.94;33.98;96488.28;10429746;28;2420;-49
2023/02/19 18:14:34;;;;;;;;;;;;;;;19.92;33.94;96511.44;10420834;28;3179;-51
2023/02/19 18:19:35;;;;;;;;;;;;;;;19.90;33.98;96503.00;10431057;28;2467;-52
2023/02/19 18:24:35;;;;;;;;;;;;;;;19.89;33.79;96519.81;10421442;28;2838;-51
2023/02/19 18:29:36;;;;;;;;;;;;;;;19.89;33.71;96524.28;10480761;28;2376;-51
2023/02/19 18:34:36;;;;;;;;;;;;;;;19.87;33.96;96534.25;10469398;28;3122;-50
2023/02/19 18:39:36;;;;;;;;;;;;;;;19.86;33.80;96532.69;10461974;28;2422;-53
2023/02/19 18:44:37;;;;;;;;;;;;;;;19.83;33.75;96539.25;10457911;28;2433;-52
2023/02/19 18:49:37;;;;;;;;;;;;;;;19.82;33.93;96548.19;10482399;28;2402;-52
2023/02/19 18:54:38;;;;;;;;;;;;;;;19.80;33.86;96554.75;10473384;28;2863;-53
2023/02/19 18:59:39;;;;;;;;;;;;;;;19.79;33.76;96556.56;10467384;28;3531;-50
2023/02/19 19:04:40;;;;;;;;;;;;;;;19.77;33.70;96558.66;10468630;28;3092;-50
2023/02/19 19:09:41;;;;;;;;;;;;;;;19.77;33.85;96563.09;10459481;28;2894;-53
2023/02/19 19:14:41;;;;;;;;;;;;;;;19.77;33.66;96568.38;10471765;28;2862;-52
2023/02/19 19:19:43;;;;;;;;;;;;;;;19.74;33.83;96566.25;10476969;28;2835;-53
2023/02/19 19:24:43;;;;;;;;;;;;;;;19.71;33.70;96561.47;10458412;28;2444;-55
2023/02/19 19:29:46;;;;;;;;;;;;;;;19.71;33.73;96556.22;10481498;28;3179;-51
2023/02/19 19:34:46;;;;;;;;;;;;;;;19.70;33.86;96550.16;10474055;28;2538;-54
2023/02/19 19:39:47;;;;;;;;;;;;;;;19.68;33.70;96552.25;10476412;28;3131;-52
2023/02/19 19:44:47;;;;;;;;;;;;;;;19.69;33.80;96547.78;10451186;28;2825;-51
2023/02/19 19:49:48;;;;;;;;;;;;;;;19.69;33.79;96551.22;10453377;28;2391;-52
2023/02/19 19:54:52;;;;;;;;;;;;;;;19.67;33.89;96549.88;10472694;28;2453;-51
2023/02/19 19:59:53;;;;;;;;;;;;;;;19.65;33.81;96546.69;10470892;28;2854;-50
2023/02/19 20:04:53;;;;;;;;;;;;;;;19.64;33.87;96553.78;10454880;28;2957;-50
2023/02/19 20:09:54;;;;;;;;;;;;;;;19.62;33.79;96562.97;10466015;28;2395;-51
2023/02/19 20:14:54;;;;;;;;;;;;;;;19.62;33.73;96568.25;10450671;28;2464;-53
2023/02/19 20:19:55;;;;;;;;;;;;;;;19.59;33.95;96564.25;10454474;28;3151;-51
2023/02/19 20:24:56;;;;;;;;;;;;;;;19.59;33.70;96573.97;10434668;28;2869;-50
2023/02/19 20:29:56;;;;;;;;;;;;;;;19.59;33.53;96571.34;10423434;28;2460;-50
2023/02/19 20:34:56;;;;;;;;;;;;;;;19.58;33.69;96570.53;10419538;28;3127;-51
2023/02/19 20:39:57;;;;;;;;;;;;;;;19.58;33.71;96575.03;10430273;28;2422;-53
2023/02/19 20:44:57;;;;;;;;;;;;;;;19.57;33.73;96570.81;10431983;28;3157;-53
2023/02/19 20:49:57;;;;;;;;;;;;;;;19.56;33.78;96570.00;10426129;28;2884;-53
2023/02/19 20:54:58;;;;;;;;;;;;;;;19.55;33.69;96572.88;10433154;28;2881;-50
2023/02/19 20:59:58;;;;;;;;;;;;;;;19.55;33.55;96578.16;10431384;28;3231;-50
2023/02/19 21:04:59;;;;;;;;;;;;;;;19.54;33.58;96584.47;10427334;28;2407;-51
2023/02/19 21:09:59;;;;;;;;;;;;;;;19.52;33.55;96587.31;10418196;28;2983;-49
2023/02/19 21:15:00;;;;;;;;;;;;;;;19.51;33.63;96583.09;10423147;28;2450;-47
2023/02/19 21:20:00;;;;;;;;;;;;;;;19.50;33.58;96586.78;10433471;28;2841;-50
2023/02/19 21:25:00;;;;;;;;;;;;;;;19.51;33.56;96584.94;10430097;28;2440;-47
2023/02/19 21:30:00;;;;;;;;;;;;;;;19.51;33.53;96598.09;10422995;28;2900;-52
2023/02/19 21:35:01;;;;;;;;;;;;;;;19.49;33.44;96591.22;10429001;28;2932;-48
2023/02/19 21:40:01;;;;;;;;;;;;;;;19.48;33.47;96584.41;10431212;28;2841;-50
2023/02/19 21:45:02;;;;;;;;;;;;;;;19.45;33.51;96579.63;10421056;28;3228;-46
2023/02/19 21:50:02;;;;;;;;;;;;;;;19.44;33.48;96582.50;10419618;28;2929;-48
2023/02/19 21:55:03;;;;;;;;;;;;;;;19.45;33.51;96584.88;10402909;28;3121;-48
2023/02/19 22:00:04;;;;;;;;;;;;;;;19.44;33.39;96577.25;10410707;28;2888;-50
2023/02/19 22:05:04;;;;;;;;;;;;;;;19.41;33.49;96567.22;10431031;28;2466;-50
2023/02/19 22:10:05;;;;;;;;;;;;;;;19.42;33.49;96585.38;10425569;28;2454;-49
2023/02/19 22:15:05;;;;;;;;;;;;;;;19.41;33.40;96583.78;10431580;28;3191;-51
2023/02/19 22:20:06;;;;;;;;;;;;;;;19.40;33.29;96592.72;10438721;28;2483;-50
2023/02/19 22:25:06;;;;;;;;;;;;;;;19.39;33.37;96593.75;10438910;28;3173;-51
2023/02/19 22:30:07;;;;;;;;;;;;;;;19.39;33.26;96585.09;10437805;28;3124;-48
2023/02/19 22:35:07;;;;;;;;;;;;;;;19.38;33.27;96594.81;10442910;28;3171;-48
2023/02/19 22:40:07;;;;;;;;;;;;;;;19.38;33.29;96597.44;10435479;28;2452;-51
2023/02/19 22:45:10;;;;;;;;;;;;;;;19.35;33.46;96584.75;10428187;28;2445;-48
2023/02/19 22:50:15;;;;;;;;;;;;;;;19.35;33.44;96581.34;10433856;28;3187;-49
2023/02/19 22:55:15;;;;;;;;;;;;;;;19.34;33.44;96593.69;10428026;28;2924;-51
2023/02/19 23:00:20;;;;;;;;;;;;;;;19.34;33.42;96595.53;10432312;28;3001;-48
2023/02/19 23:05:22;;;;;;;;;;;;;;;19.33;33.38;96607.88;10434229;28;3314;-49
2023/02/19 23:10:22;;;;;;;;;;;;;;;19.31;33.33;96611.75;10427636;28;3187;-50
2023/02/19 23:15:23;;;;;;;;;;;;;;;19.31;33.37;96614.38;10428428;28;2837;-51
2023/02/19 23:20:23;;;;;;;;;;;;;;;19.30;33.32;96624.13;10433236;28;3145;-52
2023/02/19 23:25:23;;;;;;;;;;;;;;;19.29;33.28;96629.59;10422649;28;2389;-50
2023/02/19 23:30:24;;;;;;;;;;;;;;;19.27;33.32;96629.84;10425545;28;2386;-50
2023/02/19 23:35:25;;;;;;;;;;;;;;;19.27;33.42;96621.97;10418048;28;3112;-49
2023/02/19 23:40:25;;;;;;;;;;;;;;;19.26;33.28;96620.38;10423939;28;3302;-49
2023/02/19 23:45:25;;;;;;;;;;;;;;;19.23;33.42;96623.50;10424653;28;2935;-50
2023/02/19 23:50:25;;;;;;;;;;;;;;;19.23;33.28;96628.75;10422342;28;2878;-52
2023/02/19 23:55:26;;;;;;;;;;;;;;;19.22;33.48;96626.38;10419441;28;2443;-48
